createdAt,value
2018-11-12T00:01:20.132Z,61.36
2018-11-12T00:03:48.997Z,61.89
2018-11-12T00:06:17.772Z,61.56
2018-11-12T00:08:46.497Z,61.10
2018-11-12T00:11:15.191Z,61.84
2018-11-12T00:13:44.021Z,61.60
2018-11-12T00:16:12.740Z,61.68
2018-11-12T00:18:41.414Z,61.55
2018-11-12T00:21:10.088Z,61.66
2018-11-12T00:23:38.832Z,61.35
2018-11-12T00:26:07.687Z,61.33
2018-11-12T00:28:36.464Z,61.29
2018-11-12T00:31:05.269Z,61.45
2018-11-12T00:33:34.071Z,61.38
2018-11-12T00:36:02.976Z,61.56
2018-11-12T00:38:31.750Z,61.93
2018-11-12T00:41:00.764Z,61.36
2018-11-12T00:43:29.606Z,61.31
2018-11-12T00:45:58.326Z,61.73
2018-11-12T00:48:27.036Z,61.07
2018-11-12T00:50:55.794Z,61.29
2018-11-12T00:53:24.579Z,61.82
2018-11-12T00:55:53.365Z,61.21
2018-11-12T00:58:22.173Z,61.01
2018-11-12T01:00:50.915Z,60.88
2018-11-12T01:03:19.618Z,61.05
2018-11-12T01:05:48.360Z,61.24
2018-11-12T01:08:17.037Z,60.94
2018-11-12T01:10:45.822Z,61.27
2018-11-12T01:13:14.566Z,61.46
2018-11-12T01:15:43.437Z,61.30
2018-11-12T01:18:12.093Z,61.29
2018-11-12T01:20:40.870Z,61.05
2018-11-12T01:23:09.737Z,60.81
2018-11-12T01:25:38.442Z,61.44
2018-11-12T01:28:07.089Z,61.35
2018-11-12T01:30:35.779Z,61.07
2018-11-12T01:33:04.459Z,61.19
2018-11-12T01:35:33.286Z,61.29
2018-11-12T01:38:02.025Z,62.18
2018-11-12T01:40:30.656Z,61.74
2018-11-12T01:42:59.632Z,62.25
2018-11-12T01:45:28.338Z,62.48
2018-11-12T01:47:57.117Z,61.27
2018-11-12T01:50:25.766Z,62.52
2018-11-12T01:52:54.464Z,62.28
2018-11-12T01:55:23.078Z,62.14
2018-11-12T01:57:51.757Z,62.72
2018-11-12T02:00:21.673Z,62.30
2018-11-12T02:02:51.444Z,62.24
2018-11-12T02:05:20.552Z,62.85
2018-11-12T02:07:49.268Z,62.91
2018-11-12T02:10:18.781Z,63.02
2018-11-12T02:12:47.430Z,63.36
2018-11-12T02:15:18.261Z,62.66
2018-11-12T02:17:47.629Z,63.36
2018-11-12T02:20:17.596Z,63.33
2018-11-12T02:22:47.210Z,63.08
2018-11-12T02:25:16.417Z,62.97
2018-11-12T02:27:45.136Z,63.74
2018-11-12T02:30:17.052Z,63.45
2018-11-12T02:32:45.745Z,63.29
2018-11-12T02:35:14.566Z,63.17
2018-11-12T02:37:43.303Z,63.96
2018-11-12T02:40:13.089Z,63.33
2018-11-12T02:42:42.540Z,63.67
2018-11-12T02:45:12.702Z,63.72
2018-11-12T02:47:42.993Z,64.08
2018-11-12T02:50:14.133Z,64.15
2018-11-12T02:52:43.379Z,64.04
2018-11-12T02:55:14.641Z,64.31
2018-11-12T02:57:44.783Z,64.09
2018-11-12T03:00:17.841Z,64.50
2018-11-12T03:02:46.457Z,64.95
2018-11-12T03:05:15.381Z,64.61
2018-11-12T03:07:44.006Z,64.65
2018-11-12T03:10:18.192Z,64.82
2018-11-12T03:12:46.679Z,64.53
2018-11-12T03:15:16.221Z,64.93
2018-11-12T03:17:45.515Z,64.94
2018-11-12T03:20:16.379Z,65.10
2018-11-12T03:22:44.925Z,65.49
2018-11-12T03:25:14.509Z,65.23
2018-11-12T03:27:43.797Z,65.23
2018-11-12T03:30:13.679Z,65.42
2018-11-12T03:32:42.629Z,65.84
2018-11-12T03:35:12.011Z,65.78
2018-11-12T03:37:41.560Z,65.77
2018-11-12T03:40:11.916Z,65.83
2018-11-12T03:42:40.493Z,65.90
2018-11-12T03:45:11.567Z,65.39
2018-11-12T03:47:40.161Z,65.47
2018-11-12T03:50:12.414Z,65.53
2018-11-12T03:52:41.534Z,65.23
2018-11-12T03:55:11.590Z,65.28
2018-11-12T03:57:40.099Z,65.21
2018-11-12T04:00:13.231Z,64.84
2018-11-12T04:02:42.032Z,64.73
2018-11-12T04:05:10.640Z,64.89
2018-11-12T04:07:39.927Z,64.25
2018-11-12T04:10:10.850Z,65.04
2018-11-12T04:12:39.350Z,64.89
2018-11-12T04:15:09.826Z,64.24
2018-11-12T04:17:38.347Z,64.63
2018-11-12T04:20:07.944Z,64.24
2018-11-12T04:22:36.676Z,64.31
2018-11-12T04:25:06.612Z,64.47
2018-11-12T04:27:35.239Z,64.07
2018-11-12T04:30:03.722Z,64.38
2018-11-12T04:32:32.199Z,64.39
2018-11-12T04:35:00.633Z,64.37
2018-11-12T04:37:29.074Z,64.24
2018-11-12T04:39:57.591Z,64.24
2018-11-12T04:42:26.055Z,64.43
2018-11-12T04:44:54.546Z,63.84
2018-11-12T04:47:23.117Z,64.06
2018-11-12T04:49:51.658Z,63.83
2018-11-12T04:52:20.231Z,63.52
2018-11-12T04:54:48.806Z,63.79
2018-11-12T04:57:17.363Z,63.99
2018-11-12T04:59:45.870Z,63.75
2018-11-12T05:02:14.341Z,63.19
2018-11-12T05:04:42.866Z,63.54
2018-11-12T05:07:11.244Z,63.87
2018-11-12T05:09:39.796Z,63.31
2018-11-12T05:12:08.357Z,63.32
2018-11-12T05:14:36.860Z,63.49
2018-11-12T05:17:05.417Z,63.51
2018-11-12T05:19:34.015Z,64.29
2018-11-12T05:22:02.706Z,63.28
2018-11-12T05:24:31.379Z,63.41
2018-11-12T05:26:59.995Z,63.76
2018-11-12T05:29:28.625Z,63.37
2018-11-12T05:31:57.210Z,63.86
2018-11-12T05:34:25.841Z,63.28
2018-11-12T05:36:54.395Z,63.71
2018-11-12T05:39:22.943Z,63.25
2018-11-12T05:41:51.583Z,63.73
2018-11-12T05:44:20.168Z,63.75
2018-11-12T05:46:48.693Z,63.61
2018-11-12T05:49:17.325Z,63.74
2018-11-12T05:51:45.958Z,63.60
2018-11-12T05:54:14.694Z,63.68
2018-11-12T05:56:43.253Z,63.97
2018-11-12T05:59:11.852Z,64.22
2018-11-12T06:01:40.439Z,63.83
2018-11-12T06:04:09.087Z,63.69
2018-11-12T06:06:37.705Z,64.12
2018-11-12T06:09:08.849Z,63.97
2018-11-12T06:11:37.544Z,63.98
2018-11-12T06:14:06.616Z,64.33
2018-11-12T06:16:35.286Z,64.16
2018-11-12T06:19:10.378Z,63.81
2018-11-12T06:21:39.130Z,63.81
2018-11-12T06:24:07.772Z,64.13
2018-11-12T06:26:36.293Z,63.68
2018-11-12T06:29:04.870Z,63.88
2018-11-12T06:31:33.532Z,63.80
2018-11-12T06:34:02.243Z,63.57
2018-11-12T06:36:30.868Z,63.63
2018-11-12T06:38:59.504Z,63.50
2018-11-12T06:41:28.337Z,63.75
2018-11-12T06:43:57.051Z,63.07
2018-11-12T06:46:25.700Z,63.68
2018-11-12T06:48:54.305Z,63.55
2018-11-12T06:51:23.022Z,62.69
2018-11-12T06:53:51.631Z,63.56
2018-11-12T06:56:20.525Z,63.23
2018-11-12T06:58:49.129Z,63.04
2018-11-12T07:01:17.730Z,63.37
2018-11-12T07:03:46.392Z,63.52
2018-11-12T07:06:15.124Z,63.48
2018-11-12T07:08:43.763Z,63.26
2018-11-12T07:11:12.397Z,63.04
2018-11-12T07:13:40.936Z,63.62
2018-11-12T07:16:09.545Z,63.64
2018-11-12T07:18:38.206Z,63.68
2018-11-12T07:21:06.846Z,63.92
2018-11-12T07:23:35.459Z,63.71
2018-11-12T07:26:04.191Z,63.69
2018-11-12T07:28:32.991Z,63.80
2018-11-12T07:31:01.754Z,63.12
2018-11-12T07:33:30.444Z,63.31
2018-11-12T07:35:59.221Z,63.46
2018-11-12T07:38:27.938Z,63.03
2018-11-12T07:40:56.625Z,63.16
2018-11-12T07:43:25.420Z,62.80
2018-11-12T07:45:54.216Z,62.53
2018-11-12T07:48:22.973Z,62.76
2018-11-12T07:50:51.609Z,62.57
2018-11-12T07:53:20.473Z,61.94
2018-11-12T07:55:49.261Z,62.23
2018-11-12T07:58:17.896Z,62.39
2018-11-12T08:00:46.692Z,61.83
2018-11-12T08:03:15.625Z,61.50
2018-11-12T08:05:44.212Z,61.82
2018-11-12T08:08:12.879Z,61.68
2018-11-12T08:10:41.399Z,62.14
2018-11-12T08:13:09.919Z,62.39
2018-11-12T08:15:38.514Z,62.70
2018-11-12T08:18:07.287Z,62.21
2018-11-12T08:20:35.894Z,62.45
2018-11-12T08:23:04.541Z,62.07
2018-11-12T08:25:33.168Z,62.78
2018-11-12T08:28:01.738Z,62.39
2018-11-12T08:30:31.287Z,62.23
2018-11-12T08:33:01.001Z,62.22
2018-11-12T08:35:29.883Z,62.53
2018-11-12T08:37:58.984Z,62.53
2018-11-12T08:40:29.004Z,62.43
2018-11-12T08:42:57.552Z,63.07
2018-11-12T08:45:26.227Z,62.90
2018-11-12T08:47:56.642Z,63.21
2018-11-12T08:50:26.838Z,63.34
2018-11-12T08:52:56.544Z,62.71
2018-11-12T08:55:27.473Z,62.85
2018-11-12T08:57:57.722Z,62.76
2018-11-12T09:00:27.063Z,61.85
2018-11-12T09:02:55.531Z,60.55
2018-11-12T09:05:25.299Z,60.57
2018-11-12T09:07:55.404Z,60.63
2018-11-12T09:10:26.647Z,60.93
2018-11-12T09:12:55.280Z,60.14
2018-11-12T09:15:23.937Z,60.21
2018-11-12T09:17:52.502Z,60.66
2018-11-12T09:20:23.209Z,60.33
2018-11-12T09:22:51.755Z,60.95
2018-11-12T09:25:21.596Z,60.84
2018-11-12T09:27:50.220Z,60.66
2018-11-12T09:30:20.188Z,59.63
2018-11-12T09:32:48.865Z,60.76
2018-11-12T09:35:18.838Z,59.67
2018-11-12T09:37:48.641Z,59.41
2018-11-12T09:40:20.946Z,58.75
2018-11-12T09:42:49.514Z,57.76
2018-11-12T09:45:18.413Z,56.63
2018-11-12T09:47:47.320Z,55.49
2018-11-12T09:50:18.122Z,53.23
2018-11-12T09:52:48.067Z,52.09
2018-11-12T09:55:17.400Z,49.89
2018-11-12T09:57:48.604Z,48.53
2018-11-12T10:00:18.626Z,48.63
2018-11-12T10:02:48.718Z,46.40
2018-11-12T10:05:18.198Z,44.09
2018-11-12T10:07:48.590Z,45.01
2018-11-12T10:10:56.155Z,43.02
2018-11-12T10:13:26.216Z,44.21
2018-11-12T10:15:55.047Z,44.83
2018-11-12T10:18:21.365Z,44.04
2018-11-12T10:20:50.036Z,43.96
2018-11-12T10:23:19.041Z,44.91
2018-11-12T10:25:47.664Z,46.46
2018-11-12T10:28:16.726Z,46.99
2018-11-12T10:30:45.296Z,46.65
2018-11-12T10:33:13.813Z,47.23
2018-11-12T10:35:42.432Z,48.14
2018-11-12T10:38:11.188Z,47.57
2018-11-12T10:40:39.845Z,48.84
2018-11-12T10:43:08.416Z,48.44
2018-11-12T10:45:36.981Z,47.67
2018-11-12T10:48:06.015Z,47.27
2018-11-12T10:50:34.572Z,46.30
2018-11-12T10:53:03.181Z,45.73
2018-11-12T10:55:32.069Z,45.25
2018-11-12T10:58:00.638Z,46.38
2018-11-12T11:00:37.088Z,47.34
2018-11-12T11:03:13.025Z,47.14
2018-11-12T11:05:42.872Z,48.02
2018-11-12T11:08:11.855Z,48.07
2018-11-12T11:10:40.506Z,48.18
2018-11-12T11:13:09.391Z,48.77
2018-11-12T11:15:38.600Z,49.28
2018-11-12T11:18:07.517Z,48.92
2018-11-12T11:20:36.192Z,49.16
2018-11-12T11:23:04.825Z,48.64
2018-11-12T11:25:33.714Z,49.59
2018-11-12T11:28:02.751Z,49.66
2018-11-12T11:30:31.383Z,50.60
2018-11-12T11:33:00.277Z,49.87
2018-11-12T11:35:29.170Z,50.65
2018-11-12T11:37:57.793Z,48.47
2018-11-12T11:40:27.311Z,46.75
2018-11-12T11:42:55.911Z,43.34
2018-11-12T11:45:24.662Z,38.65
2018-11-12T11:47:53.792Z,33.02
2018-11-12T11:50:23.778Z,31.94
2018-11-12T11:52:52.357Z,31.28
2018-11-12T11:55:22.173Z,29.92
2018-11-12T11:57:51.055Z,29.53
2018-11-12T12:00:22.938Z,30.36
2018-11-12T12:02:52.473Z,29.37
2018-11-12T12:05:21.924Z,29.01
2018-11-12T12:07:51.147Z,28.84
2018-11-12T12:10:19.670Z,28.68
2018-11-12T12:12:49.233Z,28.45
2018-11-12T12:15:18.969Z,29.28
2018-11-12T12:17:47.857Z,30.83
2018-11-12T12:20:19.819Z,33.15
2018-11-12T12:22:48.863Z,35.03
2018-11-12T12:25:19.061Z,36.50
2018-11-12T12:27:48.747Z,37.91
2018-11-12T12:30:20.928Z,39.28
2018-11-12T12:32:50.718Z,39.62
2018-11-12T12:35:19.327Z,40.83
2018-11-12T12:37:48.377Z,41.66
2018-11-12T12:40:18.747Z,41.82
2018-11-12T12:42:47.304Z,42.39
2018-11-12T12:45:18.321Z,43.68
2018-11-12T12:47:47.368Z,43.99
2018-11-12T12:50:16.920Z,43.28
2018-11-12T12:52:45.492Z,44.49
2018-11-12T12:55:15.024Z,44.87
2018-11-12T12:57:44.908Z,44.77
2018-11-12T13:00:16.923Z,45.69
2018-11-12T13:02:45.715Z,45.64
2018-11-12T13:05:14.344Z,46.65
2018-11-12T13:07:43.037Z,46.47
2018-11-12T13:10:13.964Z,47.65
2018-11-12T13:12:42.679Z,48.75
2018-11-12T13:15:13.064Z,49.28
2018-11-12T13:17:42.495Z,49.51
2018-11-12T13:20:12.713Z,50.78
2018-11-12T13:22:41.781Z,50.86
2018-11-12T13:25:10.776Z,52.41
2018-11-12T13:27:40.081Z,52.11
2018-11-12T13:30:11.528Z,53.65
2018-11-12T13:32:40.621Z,53.45
2018-11-12T13:35:12.476Z,53.62
2018-11-12T13:37:41.122Z,53.77
2018-11-12T13:40:13.935Z,54.19
2018-11-12T13:42:43.827Z,55.03
2018-11-12T13:45:12.739Z,55.27
2018-11-12T13:47:41.449Z,54.62
2018-11-12T13:50:13.518Z,55.08
2018-11-12T13:52:42.273Z,54.71
2018-11-12T13:55:13.075Z,54.78
2018-11-12T13:57:41.770Z,55.45
2018-11-12T14:00:13.769Z,56.04
2018-11-12T14:02:43.188Z,55.85
2018-11-12T14:05:13.986Z,56.04
2018-11-12T14:07:43.489Z,56.60
2018-11-12T14:10:13.382Z,56.69
2018-11-12T14:12:42.381Z,56.09
2018-11-12T14:15:16.491Z,56.74
2018-11-12T14:17:45.486Z,56.37
2018-11-12T14:20:14.176Z,56.50
2018-11-12T14:22:42.873Z,56.96
2018-11-12T14:25:12.939Z,57.06
2018-11-12T14:27:41.624Z,56.98
2018-11-12T14:30:12.401Z,56.33
2018-11-12T14:32:41.104Z,57.05
2018-11-12T14:35:10.669Z,56.65
2018-11-12T14:37:39.637Z,57.13
2018-11-12T14:40:09.348Z,57.38
2018-11-12T14:42:38.342Z,57.23
2018-11-12T14:45:08.603Z,57.53
2018-11-12T14:47:37.247Z,56.88
2018-11-12T14:50:06.067Z,57.13
2018-11-12T14:52:34.828Z,56.96
2018-11-12T14:55:03.477Z,57.98
2018-11-12T14:57:32.069Z,57.41
2018-11-12T15:00:00.645Z,57.50
2018-11-12T15:02:29.681Z,57.83
2018-11-12T15:04:58.619Z,58.22
2018-11-12T15:07:27.194Z,58.32
2018-11-12T15:09:55.894Z,58.51
2018-11-12T15:12:24.516Z,58.57
2018-11-12T15:14:53.097Z,58.23
2018-11-12T15:17:21.974Z,58.81
2018-11-12T15:19:50.647Z,57.44
2018-11-12T15:22:19.256Z,58.03
2018-11-12T15:24:47.832Z,58.17
2018-11-12T15:27:16.461Z,58.08
2018-11-12T15:29:45.236Z,57.94
2018-11-12T15:32:13.789Z,58.09
2018-11-12T15:34:42.975Z,58.36
2018-11-12T15:37:12.281Z,58.55
2018-11-12T15:39:40.765Z,58.46
2018-11-12T15:42:09.432Z,58.46
2018-11-12T15:44:37.978Z,58.46
2018-11-12T15:47:06.569Z,58.53
2018-11-12T15:49:35.132Z,57.96
2018-11-12T15:52:03.771Z,58.34
2018-11-12T15:54:32.405Z,57.97
2018-11-12T15:57:01.495Z,57.97
2018-11-12T15:59:30.203Z,58.49
2018-11-12T16:01:58.814Z,58.35
2018-11-12T16:04:27.499Z,57.53
2018-11-12T16:06:56.072Z,57.94
2018-11-12T16:09:24.827Z,57.95
2018-11-12T16:11:53.547Z,57.99
2018-11-12T16:14:22.727Z,57.71
2018-11-12T16:16:51.266Z,57.66
2018-11-12T16:19:19.882Z,58.04
2018-11-12T16:21:48.424Z,58.38
2018-11-12T16:24:17.232Z,58.13
2018-11-12T16:26:45.947Z,58.53
2018-11-12T16:29:14.501Z,57.93
2018-11-12T16:31:43.145Z,57.93
2018-11-12T16:34:11.778Z,58.70
2018-11-12T16:36:40.400Z,58.23
2018-11-12T16:39:10.655Z,58.20
2018-11-12T16:41:40.202Z,58.77
2018-11-12T16:44:10.072Z,57.98
2018-11-12T16:46:38.618Z,58.65
2018-11-12T16:49:07.463Z,58.64
2018-11-12T16:51:36.195Z,58.58
2018-11-12T16:54:06.063Z,58.74
2018-11-12T16:56:35.265Z,58.03
2018-11-12T16:59:04.132Z,57.91
2018-11-12T17:01:32.808Z,58.38
2018-11-12T17:06:40.273Z,57.89
2018-11-12T17:09:12.320Z,58.36
2018-11-12T17:11:40.998Z,58.61
2018-11-12T17:14:09.767Z,58.67
2018-11-12T17:16:38.910Z,58.71
2018-11-12T17:19:07.534Z,58.46
2018-11-12T17:21:36.570Z,58.58
2018-11-12T17:24:05.172Z,58.42
2018-11-12T17:26:33.752Z,58.60
2018-11-12T17:29:02.287Z,58.61
2018-11-12T17:31:31.036Z,58.13
2018-11-12T17:33:59.521Z,58.52
2018-11-12T17:36:29.165Z,58.43
2018-11-12T17:38:58.991Z,58.46
2018-11-12T17:41:28.645Z,58.36
2018-11-12T17:43:59.583Z,58.96
2018-11-12T17:46:30.274Z,58.55
2018-11-12T17:49:00.711Z,58.81
2018-11-12T17:51:34.661Z,58.53
2018-11-12T17:54:06.274Z,58.19
2018-11-12T17:56:34.766Z,58.68
2018-11-12T17:59:03.566Z,58.23
2018-11-12T18:01:32.136Z,58.67
2018-11-12T18:04:00.587Z,58.64
2018-11-12T18:06:29.094Z,58.40
2018-11-12T18:08:57.640Z,58.71
2018-11-12T18:11:26.155Z,58.43
2018-11-12T18:13:54.834Z,58.70
2018-11-12T18:16:23.344Z,58.39
2018-11-12T18:18:51.918Z,58.74
2018-11-12T18:21:20.645Z,58.46
2018-11-12T18:23:49.166Z,58.44
2018-11-12T18:26:17.735Z,58.98
2018-11-12T18:28:46.351Z,58.62
2018-11-12T18:31:15.193Z,59.06
2018-11-12T18:33:43.726Z,58.47
2018-11-12T18:36:12.271Z,59.11
2018-11-12T18:38:40.943Z,58.64
2018-11-12T18:41:09.601Z,59.25
2018-11-12T18:43:38.117Z,58.90
2018-11-12T18:46:06.715Z,59.48
2018-11-12T18:48:35.355Z,59.33
2018-11-12T18:51:03.969Z,59.33
2018-11-12T18:53:32.552Z,59.73
2018-11-12T18:56:01.800Z,59.54
2018-11-12T18:58:31.017Z,59.33
2018-11-12T19:00:59.613Z,59.42
2018-11-12T19:03:28.222Z,59.26
2018-11-12T19:05:56.789Z,59.00
2018-11-12T19:08:25.362Z,59.26
2018-11-12T19:10:54.059Z,59.48
2018-11-12T19:13:22.700Z,59.37
2018-11-12T19:15:51.371Z,59.10
2018-11-12T19:18:19.953Z,59.06
2018-11-12T19:20:48.662Z,59.36
2018-11-12T19:23:17.327Z,59.07
2018-11-12T19:25:45.986Z,58.80
2018-11-12T19:28:14.592Z,59.41
2018-11-12T19:30:43.120Z,59.22
2018-11-12T19:33:11.652Z,59.14
2018-11-12T19:35:40.181Z,59.04
2018-11-12T19:38:08.679Z,59.35
2018-11-12T19:40:37.495Z,58.70
2018-11-12T19:43:06.060Z,58.95
2018-11-12T19:45:35.313Z,59.54
2018-11-12T19:48:03.974Z,59.31
2018-11-12T19:50:32.531Z,59.45
2018-11-12T19:53:01.546Z,59.44
2018-11-12T19:55:30.203Z,58.98
2018-11-12T19:57:58.826Z,59.75
2018-11-12T20:00:28.436Z,59.03
2018-11-12T20:02:58.105Z,59.12
2018-11-12T20:05:26.731Z,59.66
2018-11-12T20:07:55.420Z,58.93
2018-11-12T20:10:24.368Z,59.21
2018-11-12T20:12:53.146Z,59.21
2018-11-12T20:15:23.101Z,59.31
2018-11-12T20:17:52.457Z,59.81
2018-11-12T20:20:22.512Z,59.54
2018-11-12T20:22:51.521Z,59.62
2018-11-12T20:25:21.435Z,59.21
2018-11-12T20:27:50.956Z,59.66
2018-11-12T20:30:23.439Z,59.70
2018-11-12T20:32:52.041Z,59.79
2018-11-12T20:35:20.645Z,59.43
2018-11-12T20:37:49.308Z,59.58
2018-11-12T20:40:18.663Z,59.59
2018-11-12T20:42:48.106Z,59.23
2018-11-12T20:45:17.711Z,59.43
2018-11-12T20:47:47.625Z,59.54
2018-11-12T20:50:16.802Z,59.79
2018-11-12T20:52:45.481Z,59.48
2018-11-12T20:55:15.163Z,59.99
2018-11-12T20:57:43.951Z,59.67
2018-11-12T21:00:16.726Z,59.89
2018-11-12T21:02:46.717Z,59.36
2018-11-12T21:05:16.001Z,59.05
2018-11-12T21:07:44.757Z,59.37
2018-11-12T21:10:16.348Z,59.34
2018-11-12T21:12:45.389Z,59.05
2018-11-12T21:15:18.444Z,58.94
2018-11-12T21:17:47.103Z,59.78
2018-11-12T21:20:18.107Z,59.19
2018-11-12T21:22:46.759Z,59.48
2018-11-12T21:25:16.695Z,59.44
2018-11-12T21:27:45.375Z,59.42
2018-11-12T21:30:22.419Z,58.85
2018-11-12T21:32:50.956Z,58.96
2018-11-12T21:35:19.573Z,58.55
2018-11-12T21:37:48.668Z,59.10
2018-11-12T21:40:21.941Z,58.93
2018-11-12T21:42:50.499Z,59.19
2018-11-12T21:45:20.682Z,59.01
2018-11-12T21:47:49.249Z,58.51
2018-11-12T21:50:19.082Z,58.53
2018-11-12T21:52:47.660Z,58.83
2018-11-12T21:55:16.185Z,59.10
2018-11-12T21:57:46.049Z,58.91
2018-11-12T22:00:25.596Z,58.92
2018-11-12T22:02:56.664Z,58.85
2018-11-12T22:05:25.640Z,59.03
2018-11-12T22:07:54.592Z,58.94
2018-11-12T22:10:23.210Z,58.49
2018-11-12T22:12:52.564Z,58.55
2018-11-12T22:15:21.229Z,58.92
2018-11-12T22:17:49.866Z,58.44
2018-11-12T22:20:19.744Z,58.91
2018-11-12T22:22:48.343Z,59.39
2018-11-12T22:25:19.686Z,59.39
2018-11-12T22:27:49.446Z,59.41
2018-11-12T22:30:20.309Z,59.02
2018-11-12T22:32:51.510Z,58.89
2018-11-12T22:35:20.193Z,59.29
2018-11-12T22:37:48.917Z,59.62
2018-11-12T22:40:18.239Z,59.19
2018-11-12T22:42:48.319Z,59.43
2018-11-12T22:45:18.234Z,59.29
2018-11-12T22:47:47.843Z,59.42
2018-11-12T22:50:16.395Z,59.34
2018-11-12T22:52:45.415Z,59.29
2018-11-12T22:55:14.974Z,59.49
2018-11-12T22:57:43.532Z,60.10
2018-11-12T23:00:22.243Z,59.83
2018-11-12T23:02:51.130Z,59.98
2018-11-12T23:05:21.985Z,59.86
2018-11-12T23:07:51.004Z,59.96
2018-11-12T23:10:20.025Z,59.94
2018-11-12T23:12:48.624Z,60.05
2018-11-12T23:15:17.841Z,59.78
2018-11-12T23:17:46.366Z,59.79
2018-11-12T23:20:22.175Z,59.56
2018-11-12T23:22:51.214Z,59.85
2018-11-12T23:25:19.792Z,60.00
2018-11-12T23:27:49.214Z,59.90
2018-11-12T23:30:19.283Z,59.99
2018-11-12T23:32:47.830Z,59.95
2018-11-12T23:35:17.891Z,59.99
2018-11-12T23:37:46.971Z,60.08
2018-11-12T23:40:17.572Z,59.75
2018-11-12T23:42:46.623Z,60.49
2018-11-12T23:45:15.232Z,60.64
2018-11-12T23:47:43.739Z,60.33
2018-11-12T23:50:16.026Z,60.00
2018-11-12T23:52:45.286Z,60.11
2018-11-12T23:55:14.105Z,60.70
2018-11-12T23:57:42.739Z,60.29
